Terminal Aerodrome Forecast
Issued by NWS Twin Cities, MN

Home | Current Version | Previous Version | Text Only | Print | Product List | Glossary Off
Versions: 1 2 3 4 5 6 7 8 9 10 11 12 13 14 15 16 17 18 19 20 21 22 23 24 25 26 27

479
FTUS43 KMPX 152054 AAA
TAFMSP
TAF AMD
KMSP 152054Z 1521/1624 21007KT P6SM FEW250
     FM160300 16003KT P6SM SCT250
     FM161600 11003KT P6SM SCT025 BKN120
     FM162100 08004KT P6SM SCT012 BKN025 OVC060 PROB30 1621/1624 5SM
      -FZDZ BKN012 OVC025=

USA.gov is the U.S. government's official web portal to all federal, state and local government web resources and services.